createdAt,value
2023-04-20T00:00:58.028Z,10.75
2023-04-20T00:03:26.679Z,10.57
2023-04-20T00:05:54.362Z,10.60
2023-04-20T00:08:21.457Z,9.40
2023-04-20T00:10:48.760Z,12.70
2023-04-20T00:13:15.865Z,13.95
2023-04-20T00:15:42.963Z,13.63
2023-04-20T00:18:10.221Z,14.00
2023-04-20T00:20:38.560Z,10.35
2023-04-20T00:23:05.751Z,10.57
2023-04-20T00:25:33.392Z,9.65
2023-04-20T00:28:00.656Z,10.23
2023-04-20T00:30:27.825Z,7.95
2023-04-20T00:32:54.977Z,10.93
2023-04-20T00:35:22.170Z,8.07
2023-04-20T00:37:49.250Z,9.00
2023-04-20T00:40:16.402Z,8.27
2023-04-20T00:42:43.463Z,9.50
2023-04-20T00:45:10.715Z,10.45
2023-04-20T00:47:38.527Z,8.38
2023-04-20T00:52:34.106Z,9.30
2023-04-20T00:55:02.087Z,7.90
2023-04-20T00:57:31.129Z,7.90
2023-04-20T01:00:01.633Z,7.57
2023-04-20T01:02:28.971Z,9.23
2023-04-20T01:04:56.614Z,8.00
2023-04-20T01:07:23.719Z,7.10
2023-04-20T01:09:50.861Z,5.05
2023-04-20T01:12:18.115Z,5.40
2023-04-20T01:14:45.178Z,8.32
2023-04-20T01:17:13.625Z,8.73
2023-04-20T01:19:46.187Z,8.90
2023-04-20T01:22:22.405Z,9.75
2023-04-20T01:24:49.530Z,9.38
2023-04-20T01:27:17.208Z,9.57
2023-04-20T01:29:45.445Z,11.43
2023-04-20T01:32:13.070Z,9.55
2023-04-20T01:34:40.844Z,8.57
2023-04-20T01:37:09.025Z,10.30
2023-04-20T01:39:37.763Z,15.52
2023-04-20T01:42:06.137Z,11.43
2023-04-20T01:44:33.276Z,9.80
2023-04-20T01:47:00.455Z,11.95
2023-04-20T01:49:27.704Z,7.95
2023-04-20T01:51:55.662Z,11.25
2023-04-20T01:54:22.867Z,7.28
2023-04-20T01:56:49.940Z,6.43
2023-04-20T01:59:17.388Z,9.00
2023-04-20T02:01:44.626Z,9.90
2023-04-20T02:04:11.823Z,8.95
2023-04-20T02:06:40.919Z,6.60
2023-04-20T02:09:10.173Z,8.80
2023-04-20T02:11:37.351Z,10.73
2023-04-20T02:14:06.717Z,9.80
2023-04-20T02:19:03.048Z,6.82
2023-04-20T02:21:30.191Z,9.20
2023-04-20T02:23:57.574Z,9.02
2023-04-20T02:26:27.366Z,8.18
2023-04-20T02:28:54.467Z,10.40
2023-04-20T02:31:21.543Z,9.20
2023-04-20T02:33:50.681Z,12.20
2023-04-20T02:36:19.390Z,13.85
2023-04-20T02:38:46.472Z,10.55
2023-04-20T02:41:13.551Z,10.38
2023-04-20T02:43:41.054Z,12.88
2023-04-20T02:46:09.971Z,12.82
2023-04-20T02:48:37.254Z,15.88
2023-04-20T02:51:04.437Z,15.30
2023-04-20T02:53:41.055Z,12.98
2023-04-20T02:56:14.429Z,16.65
2023-04-20T02:58:52.108Z,16.95
2023-04-20T03:01:32.994Z,18.38
2023-04-20T03:04:06.596Z,15.23
2023-04-20T03:06:38.887Z,18.00
2023-04-20T03:09:08.978Z,21.17
2023-04-20T03:11:56.403Z,31.70
2023-04-20T03:14:42.036Z,22.52
2023-04-20T03:17:09.458Z,23.88
2023-04-20T03:19:36.848Z,42.50
2023-04-20T03:22:04.906Z,33.67
2023-04-20T03:24:33.854Z,20.15
2023-04-20T03:27:08.013Z,31.05
2023-04-20T03:29:44.170Z,20.13
2023-04-20T03:32:11.495Z,19.60
2023-04-20T03:34:38.676Z,21.45
2023-04-20T03:37:06.496Z,17.40
2023-04-20T03:39:33.614Z,18.88
2023-04-20T03:42:00.787Z,22.58
2023-04-20T03:44:28.115Z,18.65
2023-04-20T03:46:55.191Z,19.15
2023-04-20T03:49:25.056Z,21.50
2023-04-20T03:51:52.210Z,16.80
2023-04-20T03:54:19.275Z,20.80
2023-04-20T03:56:46.615Z,19.48
2023-04-20T03:59:14.264Z,28.45
2023-04-20T04:01:44.393Z,68.78
2023-04-20T04:04:13.691Z,64.68
2023-04-20T04:06:41.193Z,34.38
2023-04-20T04:09:09.629Z,83.60
2023-04-20T04:11:36.903Z,52.22
2023-04-20T04:14:07.063Z,72.90
2023-04-20T04:16:36.899Z,32.05
2023-04-20T04:19:04.157Z,69.55
2023-04-20T04:21:31.462Z,52.95
2023-04-20T04:24:05.743Z,23.63
2023-04-20T04:29:09.058Z,19.70
2023-04-20T04:31:36.284Z,20.63
2023-04-20T04:34:10.742Z,22.90
2023-04-20T04:36:44.091Z,23.40
2023-04-20T04:39:13.919Z,39.92
2023-04-20T04:41:57.401Z,42.33
2023-04-20T04:44:40.063Z,100.63
2023-04-20T04:47:09.564Z,95.68
2023-04-20T04:49:37.129Z,112.13
2023-04-20T04:52:04.334Z,81.18
2023-04-20T04:54:31.457Z,197.23
2023-04-20T04:56:58.806Z,87.45
2023-04-20T04:59:26.005Z,130.48
2023-04-20T05:01:53.118Z,174.85
2023-04-20T05:04:20.666Z,79.32
2023-04-20T05:06:47.829Z,47.15
2023-04-20T05:09:21.168Z,224.65
2023-04-20T05:11:48.214Z,108.90
2023-04-20T05:14:15.521Z,38.05
2023-04-20T05:16:42.721Z,142.52
2023-04-20T05:19:09.910Z,36.42
2023-04-20T05:21:38.187Z,161.23
2023-04-20T05:24:06.439Z,229.68
2023-04-20T05:26:33.629Z,43.08
2023-04-20T05:29:01.690Z,29.15
2023-04-20T05:31:29.174Z,29.90
2023-04-20T05:33:56.280Z,34.88
2023-04-20T05:36:23.470Z,26.92
2023-04-20T05:38:50.679Z,32.90
2023-04-20T05:41:17.868Z,126.07
2023-04-20T05:43:45.208Z,93.30
2023-04-20T05:46:12.370Z,199.88
2023-04-20T05:48:39.539Z,205.82
2023-04-20T05:51:06.721Z,223.68
2023-04-20T05:53:33.824Z,74.10
2023-04-20T05:56:00.888Z,44.17
2023-04-20T05:58:28.133Z,19.38
2023-04-20T06:00:55.228Z,121.03
2023-04-20T06:03:22.849Z,33.10
2023-04-20T06:05:50.791Z,36.83
2023-04-20T06:08:19.267Z,154.15
2023-04-20T06:10:46.724Z,89.80
2023-04-20T06:13:13.905Z,137.68
2023-04-20T06:15:41.408Z,37.20
2023-04-20T06:18:08.632Z,49.20
2023-04-20T06:20:35.802Z,103.95
2023-04-20T06:23:02.964Z,68.68
2023-04-20T06:25:30.214Z,32.00
2023-04-20T06:27:57.401Z,22.00
2023-04-20T06:30:24.503Z,37.40
2023-04-20T06:32:51.756Z,22.90
2023-04-20T06:35:18.952Z,90.25
2023-04-20T06:37:46.481Z,66.50
2023-04-20T06:40:16.128Z,55.95
2023-04-20T06:42:43.497Z,25.27
2023-04-20T06:45:11.604Z,29.58
2023-04-20T06:47:39.125Z,38.45
2023-04-20T06:50:09.620Z,22.25
2023-04-20T06:52:38.885Z,24.92
2023-04-20T06:55:07.032Z,23.48
2023-04-20T06:57:34.270Z,20.73
2023-04-20T07:00:01.716Z,21.13
2023-04-20T07:02:28.897Z,23.90
2023-04-20T07:05:01.768Z,17.50
2023-04-20T07:07:28.914Z,19.83
2023-04-20T07:09:56.007Z,23.63
2023-04-20T07:12:23.094Z,20.08
2023-04-20T07:14:50.318Z,17.67
2023-04-20T07:17:17.591Z,20.77
2023-04-20T07:19:44.673Z,17.65
2023-04-20T07:22:11.765Z,20.42
2023-04-20T07:24:38.836Z,21.58
2023-04-20T07:27:06.573Z,21.63
2023-04-20T07:29:34.182Z,21.38
2023-04-20T07:32:01.424Z,21.42
2023-04-20T07:34:36.268Z,22.25
2023-04-20T07:37:03.373Z,28.38
2023-04-20T07:39:30.804Z,20.95
2023-04-20T07:41:57.918Z,30.52
2023-04-20T07:44:24.988Z,22.58
2023-04-20T07:46:52.029Z,24.77
2023-04-20T07:49:19.362Z,27.23
2023-04-20T07:51:46.776Z,21.20
2023-04-20T07:54:13.834Z,20.92
2023-04-20T07:56:40.903Z,26.00
2023-04-20T07:59:08.775Z,21.92
2023-04-20T08:04:04.189Z,24.60
2023-04-20T08:06:31.931Z,23.45
2023-04-20T08:08:59.058Z,21.95
2023-04-20T08:11:26.997Z,30.38
2023-04-20T08:13:55.078Z,22.35
2023-04-20T08:16:24.071Z,24.65
2023-04-20T08:18:51.471Z,21.33
2023-04-20T08:21:18.822Z,23.30
2023-04-20T08:23:45.912Z,18.55
2023-04-20T08:26:16.051Z,25.85
2023-04-20T08:28:44.904Z,25.52
2023-04-20T08:31:14.182Z,24.48
2023-04-20T08:33:41.730Z,30.23
2023-04-20T08:36:08.876Z,31.40
2023-04-20T08:38:36.328Z,22.08
2023-04-20T08:41:03.549Z,25.83
2023-04-20T08:43:31.731Z,27.35
2023-04-20T08:46:00.364Z,21.30
2023-04-20T08:48:38.701Z,24.25
2023-04-20T08:51:06.419Z,24.13
2023-04-20T08:53:33.875Z,25.58
2023-04-20T08:56:01.231Z,26.65
2023-04-20T08:58:32.169Z,29.95
2023-04-20T09:01:01.072Z,29.70
2023-04-20T09:03:33.480Z,24.60
2023-04-20T09:06:00.883Z,24.80
2023-04-20T09:08:39.343Z,27.08
2023-04-20T09:11:06.768Z,25.75
2023-04-20T09:13:33.950Z,34.42
2023-04-20T09:16:13.684Z,26.95
2023-04-20T09:18:51.200Z,25.67
2023-04-20T09:21:18.275Z,24.52
2023-04-20T09:23:56.528Z,29.20
2023-04-20T09:26:27.145Z,26.67
2023-04-20T09:28:54.354Z,26.35
2023-04-20T09:31:22.953Z,25.65
2023-04-20T09:34:01.544Z,26.33
2023-04-20T09:36:39.159Z,24.23
2023-04-20T09:39:15.569Z,27.40
2023-04-20T09:41:43.830Z,29.15
2023-04-20T09:44:12.301Z,28.67
2023-04-20T09:46:40.723Z,25.42
2023-04-20T09:49:09.880Z,26.67
2023-04-20T09:51:45.035Z,22.50
2023-04-20T09:54:13.605Z,22.65
2023-04-20T09:56:41.192Z,24.27
2023-04-20T09:59:08.812Z,24.92
2023-04-20T10:01:38.192Z,27.30
2023-04-20T10:04:14.435Z,34.40
2023-04-20T10:07:03.281Z,28.45
2023-04-20T10:09:32.358Z,30.65
2023-04-20T10:12:07.411Z,23.05
2023-04-20T10:14:35.755Z,24.58
2023-04-20T10:17:08.986Z,28.60
2023-04-20T10:19:44.248Z,28.27
2023-04-20T10:22:29.220Z,24.02
2023-04-20T10:24:56.447Z,22.23
2023-04-20T10:27:24.158Z,28.83
2023-04-20T10:29:51.688Z,28.67
2023-04-20T10:32:27.237Z,25.60
2023-04-20T10:35:20.930Z,29.25
2023-04-20T10:37:50.947Z,26.73
2023-04-20T10:40:27.156Z,29.67
2023-04-20T10:42:54.359Z,25.45
2023-04-20T10:45:22.059Z,26.55
2023-04-20T10:47:49.901Z,28.40
2023-04-20T10:50:18.875Z,23.60
2023-04-20T10:52:46.222Z,25.55
2023-04-20T10:55:21.821Z,30.08
2023-04-20T10:57:54.205Z,28.38
2023-04-20T11:00:28.731Z,24.37
2023-04-20T11:02:59.795Z,26.60
2023-04-20T11:05:27.699Z,24.65
2023-04-20T11:07:56.668Z,26.23
2023-04-20T11:10:36.732Z,26.02
2023-04-20T11:13:03.865Z,25.85
2023-04-20T11:15:35.266Z,22.90
2023-04-20T11:18:10.253Z,20.35
2023-04-20T11:20:38.315Z,26.02
2023-04-20T11:23:06.054Z,25.17
2023-04-20T11:28:08.908Z,24.85
2023-04-20T11:30:42.770Z,21.17
2023-04-20T11:33:11.001Z,25.95
2023-04-20T11:35:40.037Z,26.70
2023-04-20T11:38:08.380Z,24.52
2023-04-20T11:40:36.481Z,21.08
2023-04-20T11:43:04.837Z,29.35
2023-04-20T11:45:36.893Z,22.58
2023-04-20T11:48:05.792Z,28.15
2023-04-20T11:50:33.004Z,26.20
2023-04-20T11:53:00.301Z,25.60
2023-04-20T11:55:27.422Z,28.33
2023-04-20T11:57:54.962Z,30.55
2023-04-20T12:00:22.427Z,19.87
2023-04-20T12:02:49.744Z,23.40
2023-04-20T12:05:17.043Z,27.20
2023-04-20T12:07:44.211Z,20.95
2023-04-20T12:10:11.439Z,21.50
2023-04-20T12:12:38.560Z,27.20
2023-04-20T12:15:06.698Z,24.08
2023-04-20T12:17:33.975Z,26.33
2023-04-20T12:20:01.170Z,26.10
2023-04-20T12:22:28.490Z,31.67
2023-04-20T12:24:55.570Z,20.63
2023-04-20T12:27:22.728Z,25.95
2023-04-20T12:29:49.919Z,23.80
2023-04-20T12:32:17.067Z,23.58
2023-04-20T12:34:44.221Z,25.10
2023-04-20T12:37:11.308Z,26.98
2023-04-20T12:39:38.472Z,20.98
2023-04-20T12:42:05.658Z,28.92
2023-04-20T12:44:33.028Z,25.27
2023-04-20T12:47:00.228Z,20.42
2023-04-20T12:49:27.370Z,24.33
2023-04-20T12:51:54.479Z,29.52
2023-04-20T12:54:21.621Z,28.77
2023-04-20T12:56:49.036Z,28.13
2023-04-20T12:59:16.131Z,29.00
2023-04-20T13:01:43.302Z,24.13
2023-04-20T13:04:11.172Z,24.52
2023-04-20T13:06:38.648Z,27.25
2023-04-20T13:09:07.112Z,25.63
2023-04-20T13:11:34.289Z,26.05
2023-04-20T13:14:01.514Z,21.30
2023-04-20T13:16:29.483Z,30.67
2023-04-20T13:18:56.821Z,23.02
2023-04-20T13:21:23.926Z,23.10
2023-04-20T13:23:51.317Z,22.85
2023-04-20T13:26:18.442Z,28.98
2023-04-20T13:28:45.653Z,24.15
2023-04-20T13:31:12.821Z,22.40
2023-04-20T13:33:39.979Z,23.77
2023-04-20T13:36:08.759Z,20.85
2023-04-20T13:38:36.018Z,26.60
2023-04-20T13:41:03.218Z,24.65
2023-04-20T13:43:30.314Z,23.98
2023-04-20T13:45:58.101Z,27.55
2023-04-20T13:50:56.169Z,24.58
2023-04-20T13:53:23.608Z,24.77
2023-04-20T13:55:50.936Z,25.38
2023-04-20T13:58:18.078Z,25.63
2023-04-20T14:00:46.289Z,25.10
2023-04-20T14:03:14.308Z,23.63
2023-04-20T14:05:42.257Z,23.70
2023-04-20T14:08:09.756Z,25.23
2023-04-20T14:10:40.546Z,22.83
2023-04-20T14:13:10.019Z,28.05
2023-04-20T14:15:40.016Z,23.45
2023-04-20T14:18:07.735Z,27.73
2023-04-20T14:20:37.873Z,28.77
2023-04-20T14:23:09.263Z,22.38
2023-04-20T14:25:36.775Z,25.85
2023-04-20T14:28:07.049Z,24.45
2023-04-20T14:30:34.193Z,26.45
2023-04-20T14:33:03.207Z,27.60
2023-04-20T14:35:34.118Z,23.60
2023-04-20T14:38:01.551Z,23.67
2023-04-20T14:40:29.179Z,20.38
2023-04-20T14:42:57.100Z,30.60
2023-04-20T14:47:57.710Z,21.10
2023-04-20T14:50:31.559Z,20.27
2023-04-20T14:52:58.636Z,20.80
2023-04-20T14:55:26.207Z,21.05
2023-04-20T14:57:58.923Z,17.65
2023-04-20T15:00:36.032Z,19.52
2023-04-20T15:03:03.970Z,20.42
2023-04-20T15:05:33.088Z,19.15
2023-04-20T15:08:04.331Z,21.63
2023-04-20T15:10:38.347Z,21.73
2023-04-20T15:13:09.732Z,19.42
2023-04-20T15:15:48.246Z,21.17
2023-04-20T15:18:20.905Z,19.27
2023-04-20T15:20:48.382Z,22.10
2023-04-20T15:23:19.763Z,18.13
2023-04-20T15:25:50.436Z,16.90
2023-04-20T15:28:23.022Z,24.25
2023-04-20T15:30:55.288Z,24.90
2023-04-20T15:33:22.576Z,20.83
2023-04-20T15:35:50.490Z,19.13
2023-04-20T15:38:25.381Z,17.33
2023-04-20T15:40:53.903Z,17.77
2023-04-20T15:43:21.293Z,19.77
2023-04-20T15:45:51.476Z,18.95
2023-04-20T15:48:19.501Z,18.35
2023-04-20T15:50:51.626Z,21.90
2023-04-20T15:53:34.290Z,19.83
2023-04-20T15:56:01.647Z,17.20
2023-04-20T16:01:01.053Z,19.30
2023-04-20T16:03:29.718Z,19.08
2023-04-20T16:05:57.306Z,17.48
2023-04-20T16:08:27.722Z,14.80
2023-04-20T16:10:57.655Z,17.08
2023-04-20T16:13:32.676Z,16.52
2023-04-20T16:16:02.636Z,17.30
2023-04-20T16:18:32.903Z,14.18
2023-04-20T16:21:00.221Z,17.25
2023-04-20T16:23:31.497Z,18.80
2023-04-20T16:26:05.423Z,13.82
2023-04-20T16:28:35.881Z,17.90
2023-04-20T16:31:03.169Z,13.70
2023-04-20T16:33:32.141Z,14.65
2023-04-20T16:36:00.457Z,13.65
2023-04-20T16:38:27.757Z,12.15
2023-04-20T16:40:55.017Z,15.52
2023-04-20T16:43:22.510Z,18.05
2023-04-20T16:45:49.908Z,19.58
2023-04-20T16:48:17.109Z,14.15
2023-04-20T16:50:44.320Z,12.45
2023-04-20T16:53:11.418Z,15.55
2023-04-20T16:55:38.551Z,15.57
2023-04-20T16:58:05.698Z,16.10
2023-04-20T17:00:33.214Z,16.88
2023-04-20T17:03:03.782Z,14.35
2023-04-20T17:05:31.225Z,14.05
2023-04-20T17:07:58.428Z,17.80
2023-04-20T17:10:25.674Z,13.52
2023-04-20T17:12:53.035Z,11.20
2023-04-20T17:15:20.818Z,11.57
2023-04-20T17:17:50.818Z,15.75
2023-04-20T17:20:18.267Z,18.88
2023-04-20T17:22:46.711Z,11.07
2023-04-20T17:25:14.762Z,16.40
2023-04-20T17:27:43.658Z,13.63
2023-04-20T17:30:17.395Z,13.80
2023-04-20T17:32:44.523Z,15.65
2023-04-20T17:35:11.845Z,17.73
2023-04-20T17:37:39.187Z,11.05
2023-04-20T17:40:07.684Z,17.83
2023-04-20T17:42:34.841Z,18.02
2023-04-20T17:45:01.977Z,16.92
2023-04-20T17:47:31.599Z,20.75
2023-04-20T17:49:59.908Z,19.95
2023-04-20T17:52:28.266Z,15.00
2023-04-20T17:54:55.619Z,18.02
2023-04-20T17:57:22.820Z,18.67
2023-04-20T17:59:50.669Z,18.52
2023-04-20T18:02:18.238Z,14.40
2023-04-20T18:04:46.038Z,16.02
2023-04-20T18:09:43.548Z,17.52
2023-04-20T18:12:11.508Z,18.48
2023-04-20T18:14:40.584Z,20.67
2023-04-20T18:17:08.384Z,20.17
2023-04-20T18:19:38.418Z,19.13
2023-04-20T18:22:05.783Z,18.27
2023-04-20T18:24:33.114Z,20.65
2023-04-20T18:27:01.042Z,17.48
2023-04-20T18:32:01.750Z,23.80
2023-04-20T18:34:34.700Z,18.75
2023-04-20T18:37:01.871Z,20.63
2023-04-20T18:39:30.007Z,17.67
2023-04-20T18:41:59.986Z,19.70
2023-04-20T18:44:28.389Z,19.17
2023-04-20T18:47:04.875Z,25.05
2023-04-20T18:49:32.277Z,19.55
2023-04-20T18:51:59.683Z,20.30
2023-04-20T18:54:26.919Z,19.48
2023-04-20T18:56:54.835Z,20.23
2023-04-20T19:01:52.601Z,23.02
2023-04-20T19:04:20.640Z,17.33
2023-04-20T19:06:48.399Z,19.33
2023-04-20T19:09:18.599Z,24.33
2023-04-20T19:11:45.883Z,22.52
2023-04-20T19:14:15.932Z,18.50
2023-04-20T19:16:43.278Z,16.88
2023-04-20T19:19:10.910Z,16.65
2023-04-20T19:21:40.402Z,20.17
2023-04-20T19:24:07.916Z,20.88
2023-04-20T19:26:37.813Z,23.17
2023-04-20T19:29:05.953Z,22.88
2023-04-20T19:31:37.855Z,19.40
2023-04-20T19:34:07.861Z,20.80
2023-04-20T19:36:35.264Z,21.92
2023-04-20T19:41:31.179Z,21.25
2023-04-20T19:43:59.428Z,20.70
2023-04-20T19:46:27.180Z,27.02
2023-04-20T19:48:57.531Z,19.27
2023-04-20T19:51:28.417Z,26.90
2023-04-20T19:53:56.545Z,22.42
2023-04-20T19:56:27.462Z,26.08
2023-04-20T19:58:54.749Z,25.85
2023-04-20T20:01:21.892Z,19.73
2023-04-20T20:03:49.844Z,23.95
2023-04-20T20:06:22.958Z,18.50
2023-04-20T20:08:50.676Z,24.35
2023-04-20T20:11:17.925Z,22.00
2023-04-20T20:13:45.337Z,25.52
2023-04-20T20:16:12.527Z,19.15
2023-04-20T20:18:39.946Z,23.67
2023-04-20T20:21:07.463Z,22.80
2023-04-20T20:23:34.603Z,20.63
2023-04-20T20:26:02.663Z,25.17
2023-04-20T20:28:29.867Z,21.67
2023-04-20T20:30:57.288Z,17.75
2023-04-20T20:33:24.480Z,26.17
2023-04-20T20:35:52.563Z,20.55
2023-04-20T20:38:21.006Z,29.67
2023-04-20T20:40:50.552Z,18.10
2023-04-20T20:43:19.450Z,22.55
2023-04-20T20:45:47.400Z,19.08
2023-04-20T20:48:14.552Z,22.15
2023-04-20T20:50:41.740Z,20.70
2023-04-20T20:53:08.989Z,26.13
2023-04-20T20:55:36.148Z,19.63
2023-04-20T20:58:03.359Z,22.10
2023-04-20T21:00:30.851Z,24.52
2023-04-20T21:02:59.018Z,20.17
2023-04-20T21:05:26.538Z,18.17
2023-04-20T21:07:54.295Z,23.65
2023-04-20T21:10:21.416Z,26.70
2023-04-20T21:12:48.623Z,23.90
2023-04-20T21:15:16.133Z,27.00
2023-04-20T21:17:43.412Z,28.30
2023-04-20T21:20:11.535Z,23.33
2023-04-20T21:22:38.735Z,28.10
2023-04-20T21:25:06.556Z,26.30
2023-04-20T21:27:33.709Z,28.88
2023-04-20T21:30:00.870Z,23.58
2023-04-20T21:32:28.282Z,26.65
2023-04-20T21:34:55.525Z,27.20
2023-04-20T21:37:22.675Z,35.35
2023-04-20T21:39:51.150Z,24.80
2023-04-20T21:42:18.294Z,29.60
2023-04-20T21:44:48.248Z,24.50
2023-04-20T21:47:15.485Z,24.15
2023-04-20T21:49:46.448Z,29.05
2023-04-20T21:52:14.571Z,26.33
2023-04-20T21:54:42.030Z,29.52
2023-04-20T21:57:13.828Z,34.22
2023-04-20T21:59:40.996Z,23.90
2023-04-20T22:02:08.310Z,28.30
2023-04-20T22:04:35.846Z,26.52
2023-04-20T22:07:04.175Z,27.05
2023-04-20T22:09:31.363Z,29.23
2023-04-20T22:12:04.530Z,31.58
2023-04-20T22:14:31.804Z,32.33
2023-04-20T22:16:59.521Z,30.80
2023-04-20T22:19:29.407Z,24.48
2023-04-20T22:21:58.713Z,31.13
2023-04-20T22:24:25.958Z,27.60
2023-04-20T22:26:53.031Z,27.98
2023-04-20T22:29:20.946Z,33.45
2023-04-20T22:31:48.310Z,32.10
2023-04-20T22:34:15.987Z,29.23
2023-04-20T22:36:43.118Z,30.73
2023-04-20T22:39:10.258Z,26.30
2023-04-20T22:41:37.534Z,24.23
2023-04-20T22:44:04.759Z,27.10
2023-04-20T22:46:32.017Z,26.35
2023-04-20T22:48:59.228Z,24.95
2023-04-20T22:51:29.033Z,28.60
2023-04-20T22:53:56.177Z,24.13
2023-04-20T22:56:24.597Z,30.98
2023-04-20T22:58:51.755Z,27.63
2023-04-20T23:01:19.053Z,33.38
2023-04-20T23:03:46.361Z,30.13
2023-04-20T23:06:18.770Z,29.55
2023-04-20T23:08:46.840Z,31.35
2023-04-20T23:11:16.435Z,26.63
2023-04-20T23:13:44.366Z,25.52
2023-04-20T23:18:39.088Z,31.23
2023-04-20T23:21:06.414Z,25.10
2023-04-20T23:23:33.477Z,32.72
2023-04-20T23:26:00.762Z,21.45
2023-04-20T23:28:27.878Z,28.95
2023-04-20T23:30:55.009Z,25.10
2023-04-20T23:33:22.595Z,26.95
2023-04-20T23:35:49.864Z,29.08
2023-04-20T23:38:18.133Z,28.60
2023-04-20T23:40:45.449Z,32.78
2023-04-20T23:43:12.538Z,26.67
2023-04-20T23:45:39.655Z,29.92
2023-04-20T23:48:07.344Z,24.85
2023-04-20T23:50:36.937Z,21.77
2023-04-20T23:53:05.693Z,28.25
2023-04-20T23:55:32.915Z,22.67
2023-04-20T23:58:00.373Z,24.33
